Time;durP1;ratioP1;P1;durP2;ratioP2;P2;SDS_P1;SDS_P2;PMS_P1;PMS_P2;Temp;Humidity;BMP_temperature;BMP_pressure;BME280_temperature;BME280_humidity;BME280_pressure;Samples;Min_cycle;Max_cycle;Signal;HPM_P1;HPM_P2
2021/08/21 00:02:16;;;;;;;7.33;6.63;;;16.80;99.90;;;;;;4935497;29;20837;-75
2021/08/21 00:04:44;;;;;;;6.40;5.63;;;16.70;1.00;;;;;;4935634;29;20417;-75
2021/08/21 00:07:12;;;;;;;10.13;7.43;;;16.90;1.00;;;;;;4937634;29;20484;-76
2021/08/21 00:09:41;;;;;;;8.70;7.90;;;16.90;1.00;;;;;;4936652;29;20442;-75
2021/08/21 00:12:09;;;;;;;6.43;5.83;;;16.80;99.90;;;;;;4955534;23;20531;-65
2021/08/21 00:14:37;;;;;;;9.67;7.80;;;16.70;15.20;;;;;;4939524;29;20439;-65
2021/08/21 00:17:06;;;;;;;9.67;8.67;;;16.50;99.90;;;;;;4932237;29;20403;-65
2021/08/21 00:19:35;;;;;;;7.90;6.60;;;16.50;99.90;;;;;;4934649;29;20464;-64
2021/08/21 00:22:04;;;;;;;7.80;7.10;;;16.50;1.00;;;;;;4925451;29;20586;-65
2021/08/21 00:24:32;;;;;;;9.53;7.00;;;16.50;99.90;;;;;;4916597;29;20773;-65
2021/08/21 00:27:00;;;;;;;9.03;8.13;;;16.60;99.90;;;;;;4916219;29;20832;-65
2021/08/21 00:29:28;;;;;;;8.43;6.33;;;16.80;1.00;;;;;;4930919;29;20441;-65
2021/08/21 00:31:57;;;;;;;9.73;7.60;;;16.90;99.90;;;;;;4916541;29;20431;-65
2021/08/21 00:34:25;;;;;;;8.00;7.20;;;17.00;99.90;;;;;;4899393;29;20443;-65
2021/08/21 00:36:54;;;;;;;7.30;6.60;;;17.00;1.00;;;;;;4915943;29;20433;-65
2021/08/21 00:39:23;;;;;;;12.57;10.83;;;17.00;1.00;;;;;;4898837;29;20440;-65
2021/08/21 00:41:51;;;;;;;8.87;7.77;;;16.80;99.90;;;;;;4915915;29;20430;-65
2021/08/21 00:44:19;;;;;;;10.27;9.17;;;16.70;1.00;;;;;;4915863;29;20441;-64
2021/08/21 00:46:55;;;;;;;9.77;8.27;;;16.60;1.00;;;;;;4915931;29;20433;-66
2021/08/21 00:49:24;;;;;;;10.60;9.50;;;16.30;99.90;;;;;;4898841;29;20456;-65
2021/08/21 00:51:53;;;;;;;10.63;7.93;;;16.10;1.00;;;;;;4916150;29;20441;-67
2021/08/21 00:54:21;;;;;;;8.33;7.43;;;16.20;99.90;;;;;;4899243;29;20437;-66
2021/08/21 00:56:51;;;;;;;9.50;7.87;;;16.30;1.00;;;;;;4915551;29;20464;-66
2021/08/21 00:59:19;;;;;;;9.77;8.27;;;16.30;99.90;;;;;;4898701;29;20453;-68
2021/08/21 01:01:48;;;;;;;16.03;7.07;;;16.20;1.00;;;;;;4930369;29;20468;-66
2021/08/21 01:04:19;;;;;;;8.37;7.57;;;16.10;1.00;;;;;;4916488;29;20404;-67
2021/08/21 01:06:47;;;;;;;10.57;9.47;;;16.00;1.00;;;;;;4930312;29;20437;-68
2021/08/21 01:09:17;;;;;;;10.73;8.27;;;16.00;99.90;;;;;;4898662;29;20445;-67
2021/08/21 01:11:46;;;;;;;9.10;7.57;;;16.30;99.90;;;;;;4898714;29;20480;-67
2021/08/21 01:14:15;;;;;;;8.50;7.60;;;16.40;1.00;;;;;;4915374;29;20421;-67
2021/08/21 01:16:43;;;;;;;11.43;7.57;;;16.60;99.90;;;;;;4929640;29;20444;-66
2021/08/21 01:19:12;;;;;;;9.80;7.63;;;16.90;99.90;;;;;;4915320;29;20426;-67
2021/08/21 01:21:41;;;;;;;11.40;8.67;;;17.00;1.00;;;;;;4915506;29;20455;-67
2021/08/21 01:24:09;;;;;;;11.07;8.20;;;16.90;99.90;;;;;;4930128;29;20508;-68
2021/08/21 01:26:54;;;;;;;11.90;7.50;;;16.80;1.00;;;;;;4929790;29;20445;-68
2021/08/21 01:29:49;;;;;;;9.73;7.90;;;17.00;1.00;;;;;;4929330;29;20524;-66
2021/08/21 01:32:39;;;;;;;8.90;8.00;;;17.10;99.90;;;;;;4898169;29;20468;-67
2021/08/21 01:35:09;;;;;;;11.00;7.57;;;17.30;1.00;;;;;;4929408;29;20449;-67
2021/08/21 01:37:37;;;;;;;8.13;6.50;;;17.50;1.00;;;;;;4915232;29;20400;-65
2021/08/21 01:40:33;;;;;;;8.50;7.43;;;17.40;99.90;;;;;;4898152;29;20448;-67
2021/08/21 01:43:07;;;;;;;8.00;6.73;;;17.50;99.90;;;;;;4898528;29;20779;-67
2021/08/21 01:45:47;;;;;;;8.57;7.50;;;17.60;99.90;;;;;;4929525;29;20533;-68
2021/08/21 01:48:17;;;;;;;8.27;7.50;;;17.60;76.30;;;;;;4898201;29;20445;-68
2021/08/21 01:50:45;;;;;;;7.20;6.50;;;17.50;99.90;;;;;;4897935;29;20446;-67
2021/08/21 01:53:15;;;;;;;8.47;7.13;;;17.50;99.90;;;;;;4915046;29;20826;-66
2021/08/21 01:55:45;;;;;;;8.70;7.20;;;17.50;99.90;;;;;;4929333;29;20466;-66
2021/08/21 01:58:40;;;;;;;7.73;7.03;;;17.50;99.90;;;;;;4897869;29;20536;-66
2021/08/21 02:01:31;;;;;;;7.57;6.77;;;17.20;99.90;;;;;;4897855;29;20466;-67
2021/08/21 02:04:17;;;;;;;7.87;6.23;;;17.20;1.00;;;;;;4897734;29;20512;-66
2021/08/21 02:06:46;;;;;;;8.17;7.23;;;17.30;1.00;;;;;;4897599;29;20473;-67
2021/08/21 02:09:18;;;;;;;8.50;7.70;;;17.30;1.00;;;;;;4897788;29;20426;-67
2021/08/21 02:11:49;;;;;;;11.07;7.83;;;17.60;99.90;;;;;;4897592;29;20465;-67
2021/08/21 02:14:20;;;;;;;9.77;8.30;;;17.70;91.30;;;;;;4897404;29;20533;-67
2021/08/21 02:16:52;;;;;;;7.50;6.60;;;17.60;10.80;;;;;;4928818;29;20773;-67
2021/08/21 02:19:21;;;;;;;8.03;7.23;;;17.80;1.00;;;;;;4897429;29;21268;-67
2021/08/21 02:22:00;;;;;;;8.43;7.63;;;17.70;1.00;;;;;;4929130;29;20475;-67
2021/08/21 02:24:30;;;;;;;7.97;6.93;;;17.50;1.00;;;;;;4897482;29;20476;-65
2021/08/21 02:27:01;;;;;;;10.43;8.50;;;17.40;99.90;;;;;;4897318;29;20501;-68
2021/08/21 02:29:31;;;;;;;7.87;7.07;;;17.20;99.90;;;;;;4897464;29;20548;-65
2021/08/21 02:31:59;;;;;;;8.47;7.67;;;16.90;1.00;;;;;;4914395;29;20445;-66
2021/08/21 02:34:29;;;;;;;8.17;7.33;;;16.90;99.90;;;;;;4914256;29;20411;-67
2021/08/21 02:36:58;;;;;;;9.27;8.37;;;16.90;99.90;;;;;;4896870;29;20489;-65
2021/08/21 02:39:26;;;;;;;8.10;6.37;;;16.80;1.00;;;;;;4914033;29;20426;-67
2021/08/21 02:41:54;;;;;;;9.73;8.83;;;16.70;41.80;;;;;;4896538;29;20432;-67
2021/08/21 02:44:22;;;;;;;9.90;8.90;;;16.60;99.90;;;;;;4914426;29;20511;-66
2021/08/21 02:46:52;;;;;;;8.97;8.07;;;16.40;1.00;;;;;;4913983;29;20749;-67
2021/08/21 02:49:20;;;;;;;11.77;7.40;;;16.20;99.90;;;;;;4914299;29;20507;-66
2021/08/21 02:51:48;;;;;;;8.83;7.80;;;15.90;99.90;;;;;;4913888;29;20449;-66
2021/08/21 02:54:16;;;;;;;9.93;8.93;;;15.80;99.90;;;;;;4928374;29;20437;-66
2021/08/21 02:56:46;;;;;;;8.63;7.60;;;15.80;99.90;;;;;;4896746;29;20456;-64
2021/08/21 02:59:14;;;;;;;7.53;6.77;;;15.90;99.90;;;;;;4928537;29;20474;-66
2021/08/21 03:01:43;;;;;;;8.43;7.57;;;15.70;99.90;;;;;;4896999;29;20468;-66
2021/08/21 03:04:14;;;;;;;8.70;7.30;;;15.70;99.90;;;;;;4928375;29;20558;-64
2021/08/21 03:06:45;;;;;;;8.30;7.50;;;16.00;99.90;;;;;;4896102;29;20948;-66
2021/08/21 03:09:23;;;;;;;8.37;7.27;;;16.10;99.90;;;;;;4928364;29;20424;-65
2021/08/21 03:11:51;;;;;;;10.20;8.00;;;16.10;99.90;;;;;;4913866;29;20457;-67
2021/08/21 03:14:27;;;;;;;10.93;7.10;;;16.10;99.90;;;;;;4896894;29;20501;-65
2021/08/21 03:16:55;;;;;;;9.23;7.80;;;16.10;99.90;;;;;;4896110;29;20473;-66
2021/08/21 03:19:24;;;;;;;9.40;8.40;;;16.20;99.90;;;;;;4928434;29;20412;-64
2021/08/21 03:21:53;;;;;;;9.07;7.57;;;16.20;99.90;;;;;;4896501;29;21010;-67
2021/08/21 03:24:22;;;;;;;12.77;8.57;;;16.10;1.00;;;;;;4896860;29;20483;-66
2021/08/21 03:26:50;;;;;;;10.60;8.70;;;16.10;99.90;;;;;;4927652;29;20483;-66
2021/08/21 03:29:19;;;;;;;10.03;8.87;;;16.10;63.40;;;;;;4913954;29;20444;-67
2021/08/21 03:31:48;;;;;;;9.63;8.67;;;16.10;1.00;;;;;;4927904;29;20522;-66
2021/08/21 03:34:16;;;;;;;9.67;8.67;;;16.00;1.00;;;;;;4896543;29;20437;-68
2021/08/21 03:36:46;;;;;;;9.97;8.97;;;16.00;1.00;;;;;;4928260;29;20445;-67
2021/08/21 03:39:14;;;;;;;9.70;8.43;;;15.80;99.90;;;;;;4928467;29;20456;-67
2021/08/21 03:41:42;;;;;;;10.40;9.13;;;15.80;1.00;;;;;;4896600;29;20462;-66
2021/08/21 03:44:11;;;;;;;10.70;8.47;;;15.60;1.00;;;;;;4928047;29;20476;-66
2021/08/21 03:46:40;;;;;;;10.67;9.57;;;15.50;99.90;;;;;;4895984;29;20473;-67
2021/08/21 03:49:10;;;;;;;11.10;10.00;;;15.50;99.90;;;;;;4913473;29;20441;-68
2021/08/21 03:51:41;;;;;;;11.43;9.30;;;15.40;99.90;;;;;;4913517;29;21027;-67
2021/08/21 03:54:11;;;;;;;12.60;11.30;;;15.40;99.90;;;;;;4898703;29;20452;-68
2021/08/21 03:56:40;;;;;;;12.07;9.37;;;15.30;99.90;;;;;;4900185;29;20438;-68
2021/08/21 03:59:08;;;;;;;13.90;9.90;;;15.30;99.90;;;;;;4900173;29;20472;-68
2021/08/21 04:01:46;;;;;;;13.07;11.13;;;15.30;99.90;;;;;;4931492;29;20460;-67
2021/08/21 04:04:23;;;;;;;13.20;9.33;;;15.20;99.90;;;;;;4900226;29;20475;-67
2021/08/21 04:06:52;;;;;;;10.60;8.10;;;15.20;99.90;;;;;;4930992;29;21011;-68
2021/08/21 04:09:27;;;;;;;11.73;9.83;;;15.30;99.90;;;;;;4900235;29;20537;-67
2021/08/21 04:11:59;;;;;;;15.83;9.57;;;15.40;99.90;;;;;;4899877;29;21346;-68
2021/08/21 04:14:29;;;;;;;10.00;9.10;;;15.50;99.90;;;;;;4900509;29;20457;-67
2021/08/21 04:16:57;;;;;;;11.17;9.97;;;15.50;99.90;;;;;;4931030;29;20437;-69
2021/08/21 04:19:25;;;;;;;12.00;9.23;;;15.60;99.90;;;;;;4916883;29;20434;-69
2021/08/21 04:21:59;;;;;;;13.50;9.97;;;15.70;99.90;;;;;;4899575;29;20487;-68
2021/08/21 04:24:42;;;;;;;11.27;10.00;;;15.80;99.90;;;;;;4899902;29;20455;-68
2021/08/21 04:27:11;;;;;;;9.87;8.50;;;16.20;1.00;;;;;;4899421;29;20439;-67
2021/08/21 04:29:40;;;;;;;9.57;8.37;;;16.70;1.00;;;;;;4899799;29;20468;-68
2021/08/21 04:32:12;;;;;;;14.50;9.20;;;17.00;1.00;;;;;;4931390;29;20849;-66
2021/08/21 04:34:41;;;;;;;8.53;7.77;;;17.60;99.90;;;;;;4931511;29;20433;-68
2021/08/21 04:37:14;;;;;;;10.47;9.17;;;18.20;1.00;;;;;;4930953;29;20412;-67
2021/08/21 04:39:44;;;;;;;10.80;7.87;;;18.60;99.90;;;;;;4899650;29;20416;-67
2021/08/21 04:42:18;;;;;;;8.00;6.97;;;18.70;99.90;;;;;;4930853;29;20457;-65
2021/08/21 04:44:47;;;;;;;9.00;6.43;;;18.50;99.90;;;;;;4899462;29;20484;-67
2021/08/21 04:47:15;;;;;;;8.77;7.97;;;18.20;99.90;;;;;;4930796;29;20412;-67
2021/08/21 04:49:47;;;;;;;10.20;9.20;;;18.10;99.90;;;;;;4899617;29;20457;-67
2021/08/21 04:52:16;;;;;;;9.70;8.70;;;18.20;99.90;;;;;;4930782;29;20471;-67
2021/08/21 04:54:46;;;;;;;10.40;8.03;;;17.90;99.90;;;;;;4931079;29;20442;-67
2021/08/21 04:57:15;;;;;;;12.60;9.73;;;17.70;1.00;;;;;;4930501;29;20528;-66
2021/08/21 04:59:47;;;;;;;10.73;9.43;;;17.60;1.00;;;;;;4899496;29;20441;-66
2021/08/21 05:02:16;;;;;;;11.20;10.00;;;17.70;1.00;;;;;;4898907;29;20461;-67
2021/08/21 05:04:45;;;;;;;14.60;10.47;;;18.10;1.00;;;;;;4898329;29;20497;-68
2021/08/21 05:07:13;;;;;;;10.07;9.03;;;18.50;99.90;;;;;;4898899;29;20437;-67
2021/08/21 05:09:47;;;;;;;10.97;9.87;;;18.80;99.90;;;;;;4916158;29;20408;-64
2021/08/21 05:12:20;;;;;;;8.53;7.73;;;18.90;99.90;;;;;;4898715;29;20875;-68
2021/08/21 05:14:58;;;;;;;9.20;6.90;;;18.80;99.90;;;;;;4899393;29;20412;-67
2021/08/21 05:17:27;;;;;;;11.47;10.03;;;19.00;99.90;;;;;;4898914;29;20434;-68
2021/08/21 05:20:07;;;;;;;12.20;9.87;;;19.10;99.90;;;;;;4899296;29;20449;-67
2021/08/21 05:23:07;;;;;;;10.23;8.90;;;18.90;99.90;;;;;;4930607;29;20457;-67
2021/08/21 05:25:41;;;;;;;10.10;8.43;;;18.20;99.90;;;;;;4898833;29;20470;-66
2021/08/21 05:28:10;;;;;;;11.63;9.23;;;17.70;99.90;;;;;;4915856;29;20851;-67
2021/08/21 05:30:40;;;;;;;11.43;8.00;;;17.30;1.00;;;;;;4898962;29;20442;-66
2021/08/21 05:33:12;;;;;;;10.97;9.87;;;17.30;99.90;;;;;;4916362;29;20473;-68
2021/08/21 05:35:40;;;;;;;10.77;9.77;;;17.30;95.10;;;;;;4930128;29;20420;-67
2021/08/21 05:38:09;;;;;;;11.40;8.43;;;17.30;99.90;;;;;;4915404;29;20460;-67
2021/08/21 05:40:40;;;;;;;11.70;9.60;;;17.40;99.90;;;;;;4915541;29;20437;-67
2021/08/21 05:43:10;;;;;;;11.93;9.80;;;17.50;1.00;;;;;;4898383;29;20432;-67
2021/08/21 05:45:39;;;;;;;11.37;10.10;;;17.60;1.00;;;;;;4898495;29;21013;-69
2021/08/21 05:48:08;;;;;;;11.03;9.80;;;17.70;1.00;;;;;;4914731;29;20489;-66
2021/08/21 05:50:36;;;;;;;9.63;8.63;;;17.90;1.00;;;;;;4915150;29;20433;-67
2021/08/21 05:53:04;;;;;;;11.67;9.50;;;17.90;1.00;;;;;;4914896;29;20435;-66
2021/08/21 05:55:34;;;;;;;19.53;16.07;;;18.00;1.00;;;;;;4897991;29;20445;-67
2021/08/21 05:58:13;;;;;;;12.13;9.50;;;18.10;99.90;;;;;;4897974;29;20411;-67
2021/08/21 06:00:47;;;;;;;10.57;9.20;;;18.20;99.90;;;;;;4897978;29;20508;-67
2021/08/21 06:03:17;;;;;;;9.13;8.23;;;18.60;99.90;;;;;;4914668;29;20520;-67
2021/08/21 06:05:46;;;;;;;10.07;8.13;;;18.70;99.90;;;;;;4914552;29;20461;-67
2021/08/21 06:08:16;;;;;;;11.80;8.90;;;18.80;1.00;;;;;;4929170;29;20479;-67
2021/08/21 06:10:46;;;;;;;10.47;8.50;;;19.00;99.90;;;;;;4897745;29;20450;-67
2021/08/21 06:13:20;;;;;;;12.43;8.90;;;19.10;2.20;;;;;;4929608;29;20445;-67
2021/08/21 06:15:48;;;;;;;12.43;10.10;;;19.00;99.90;;;;;;4914771;29;20407;-66
2021/08/21 06:18:17;;;;;;;12.50;10.03;;;18.90;1.00;;;;;;4914681;29;20455;-68
2021/08/21 06:20:45;;;;;;;11.40;10.20;;;18.90;99.90;;;;;;4914774;29;20425;-67
2021/08/21 06:23:14;;;;;;;11.40;9.00;;;18.70;99.90;;;;;;4915149;29;20408;-67
2021/08/21 06:25:42;;;;;;;11.30;8.43;;;18.70;99.90;;;;;;4914484;29;20440;-67
2021/08/21 06:28:10;;;;;;;9.57;7.93;;;18.60;99.90;;;;;;4914526;29;20985;-69
2021/08/21 06:30:39;;;;;;;10.77;8.90;;;18.80;99.90;;;;;;4914483;29;20907;-67
2021/08/21 06:33:08;;;;;;;14.43;11.17;;;19.10;99.90;;;;;;4914343;29;20424;-66
2021/08/21 06:35:36;;;;;;;10.27;9.23;;;19.10;99.90;;;;;;4913985;29;20400;-68
2021/08/21 06:38:04;;;;;;;10.50;9.23;;;18.80;99.90;;;;;;4914393;29;20424;-67
2021/08/21 06:40:34;;;;;;;15.73;10.90;;;18.80;99.90;;;;;;4914471;29;20397;-67
2021/08/21 06:43:03;;;;;;;12.40;8.90;;;18.90;99.90;;;;;;4914106;29;20980;-68
2021/08/21 06:45:55;;;;;;;10.77;9.67;;;18.90;99.90;;;;;;4897140;29;20458;-66
2021/08/21 06:48:23;;;;;;;10.23;9.10;;;19.00;99.90;;;;;;4914155;29;20440;-66
2021/08/21 06:50:51;;;;;;;9.93;8.60;;;19.30;99.90;;;;;;4914755;29;20415;-68
2021/08/21 06:53:20;;;;;;;11.77;9.20;;;19.30;99.90;;;;;;4914969;29;20400;-67
2021/08/21 06:55:48;;;;;;;8.80;7.90;;;19.60;99.90;;;;;;4913900;29;20411;-67
2021/08/21 06:58:19;;;;;;;14.87;9.27;;;19.80;1.00;;;;;;4914647;29;20434;-67
2021/08/21 07:00:49;;;;;;;14.90;8.77;;;19.80;99.90;;;;;;4914251;29;20433;-66
2021/08/21 07:03:19;;;;;;;12.80;8.83;;;19.80;1.00;;;;;;4914295;29;20400;-66
2021/08/21 07:05:47;;;;;;;9.40;7.30;;;19.90;1.00;;;;;;4914016;29;20852;-67
2021/08/21 07:08:15;;;;;;;13.83;9.87;;;20.00;1.00;;;;;;4914332;29;20437;-67
2021/08/21 07:10:44;;;;;;;13.07;9.00;;;20.10;1.00;;;;;;4913997;29;20412;-66
2021/08/21 07:13:12;;;;;;;9.87;8.10;;;20.30;1.00;;;;;;4897239;29;20494;-67
2021/08/21 07:15:40;;;;;;;7.57;6.83;;;20.30;37.00;;;;;;4913649;29;20400;-67
2021/08/21 07:18:08;;;;;;;8.27;6.70;;;20.40;49.70;;;;;;4913759;29;20495;-66
2021/08/21 07:20:38;;;;;;;9.47;8.10;;;20.50;57.10;;;;;;4912891;29;20727;-66
2021/08/21 07:23:06;;;;;;;8.77;6.60;;;20.30;91.80;;;;;;4913588;29;20481;-67
2021/08/21 07:25:35;;;;;;;8.13;7.30;;;20.30;94.00;;;;;;4913150;29;20496;-67
2021/08/21 07:28:04;;;;;;;8.73;7.70;;;20.30;92.90;;;;;;4912677;29;20439;-65
2021/08/21 07:30:32;;;;;;;10.77;8.03;;;20.10;91.20;;;;;;4898324;29;20453;-67
2021/08/21 07:33:00;;;;;;;11.67;7.47;;;20.40;89.50;;;;;;4910460;29;20457;-66
2021/08/21 07:35:28;;;;;;;5.90;5.30;;;20.60;90.70;;;;;;4914107;29;20408;-66
2021/08/21 07:37:58;;;;;;;7.60;6.90;;;20.40;82.20;;;;;;4914315;29;20408;-67
2021/08/21 07:40:26;;;;;;;9.93;7.57;;;20.10;84.70;;;;;;4914107;29;20443;-67
2021/08/21 07:42:54;;;;;;;8.53;5.93;;;19.50;94.20;;;;;;4914638;29;20768;-66
2021/08/21 07:45:22;;;;;;;5.83;5.27;;;19.50;97.80;;;;;;4913826;29;20434;-66
2021/08/21 07:47:51;;;;;;;8.37;6.10;;;19.80;97.00;;;;;;4913994;29;20436;-66
2021/08/21 07:50:20;;;;;;;8.37;7.00;;;19.90;92.50;;;;;;4913860;29;20822;-66
2021/08/21 07:52:49;;;;;;;7.60;6.60;;;19.70;91.50;;;;;;4913837;29;20449;-66
2021/08/21 07:55:19;;;;;;;6.33;5.70;;;19.90;93.50;;;;;;4914063;29;20445;-66
2021/08/21 07:57:47;;;;;;;7.83;5.20;;;20.10;92.60;;;;;;4913378;29;20794;-67
2021/08/21 08:00:16;;;;;;;8.03;5.23;;;20.40;84.50;;;;;;4913627;29;20408;-67
2021/08/21 08:02:45;;;;;;;8.23;5.90;;;20.40;78.20;;;;;;4913862;29;20498;-66
2021/08/21 08:05:14;;;;;;;7.47;5.83;;;20.50;71.70;;;;;;4905670;29;20496;-66
2021/08/21 08:07:42;;;;;;;5.87;5.20;;;20.60;57.50;;;;;;4894325;29;20936;-66
2021/08/21 08:10:11;;;;;;;6.93;5.60;;;20.70;69.10;;;;;;4894893;29;20408;-66
2021/08/21 08:12:41;;;;;;;6.47;5.43;;;20.90;63.80;;;;;;4894623;29;20466;-65
2021/08/21 08:15:10;;;;;;;5.77;4.70;;;21.20;53.90;;;;;;4894775;29;20438;-67
2021/08/21 08:17:38;;;;;;;7.80;5.10;;;21.40;56.40;;;;;;4895008;29;20427;-66
2021/08/21 08:20:08;;;;;;;7.37;5.73;;;21.50;46.00;;;;;;4895510;29;20767;-66
2021/08/21 08:22:36;;;;;;;8.50;6.17;;;21.50;42.80;;;;;;4878879;29;20445;-67
2021/08/21 08:25:05;;;;;;;6.50;4.40;;;21.50;41.20;;;;;;4877855;29;20957;-67
2021/08/21 08:27:33;;;;;;;8.90;5.80;;;21.60;40.80;;;;;;4894474;29;20448;-67
2021/08/21 08:30:07;;;;;;;9.13;6.30;;;21.60;38.90;;;;;;4895013;29;20997;-68
2021/08/21 08:32:35;;;;;;;7.03;6.13;;;21.50;44.00;;;;;;4895376;29;20817;-67
2021/08/21 08:35:04;;;;;;;6.87;5.80;;;21.60;39.70;;;;;;4895105;29;20411;-65
2021/08/21 08:37:33;;;;;;;5.83;5.00;;;21.60;42.50;;;;;;4894689;29;20844;-65
2021/08/21 08:40:01;;;;;;;6.03;5.43;;;22.10;34.50;;;;;;4894978;29;20745;-66
2021/08/21 08:42:30;;;;;;;6.30;5.70;;;22.20;34.10;;;;;;4897219;29;20488;-66
2021/08/21 08:45:01;;;;;;;6.17;5.57;;;22.60;30.50;;;;;;4897296;29;20422;-69
2021/08/21 08:47:32;;;;;;;5.73;5.10;;;22.60;28.70;;;;;;4896967;29;20470;-66
2021/08/21 08:50:04;;;;;;;6.10;5.50;;;22.50;28.90;;;;;;4897464;29;20794;-66
2021/08/21 08:52:34;;;;;;;6.37;5.70;;;22.60;29.30;;;;;;4897374;29;20767;-66
2021/08/21 08:55:03;;;;;;;7.20;6.30;;;22.40;28.90;;;;;;4880445;29;20512;-65
2021/08/21 08:57:36;;;;;;;6.00;5.40;;;22.20;28.50;;;;;;4897104;29;20939;-66
2021/08/21 09:00:08;;;;;;;4.70;4.30;;;22.20;28.50;;;;;;4897437;29;20393;-68
2021/08/21 09:02:40;;;;;;;5.40;4.27;;;22.30;26.70;;;;;;4896929;29;20458;-66
2021/08/21 09:05:11;;;;;;;6.00;5.40;;;22.30;27.10;;;;;;4897298;29;20438;-65
2021/08/21 09:07:44;;;;;;;5.10;4.60;;;21.80;29.80;;;;;;4896930;29;20465;-66
2021/08/21 09:10:20;;;;;;;7.10;5.67;;;21.40;36.40;;;;;;4897729;29;20397;-67
2021/08/21 09:13:02;;;;;;;7.90;5.93;;;21.40;41.20;;;;;;4897715;29;20484;-67
2021/08/21 09:15:32;;;;;;;6.90;6.27;;;21.40;37.00;;;;;;4897469;29;20433;-66
2021/08/21 09:18:10;;;;;;;7.30;6.40;;;21.40;39.50;;;;;;4897418;29;20968;-67
2021/08/21 09:20:57;;;;;;;9.13;6.53;;;21.50;43.00;;;;;;4897587;29;20409;-66
2021/08/21 09:23:28;;;;;;;5.83;5.17;;;21.70;35.40;;;;;;4900949;29;20849;-67
2021/08/21 09:26:05;;;;;;;5.13;4.60;;;21.80;32.90;;;;;;4909238;29;20426;-66
2021/08/21 09:28:33;;;;;;;4.80;4.40;;;22.10;33.20;;;;;;4907985;29;20480;-66
2021/08/21 09:31:04;;;;;;;6.10;4.47;;;22.40;28.90;;;;;;4900180;29;20437;-66
2021/08/21 09:33:35;;;;;;;5.07;3.60;;;22.70;26.20;;;;;;4900500;29;20801;-66
2021/08/21 09:36:05;;;;;;;7.20;4.53;;;22.40;25.70;;;;;;4886368;29;20444;-68
2021/08/21 09:38:35;;;;;;;6.40;5.77;;;22.00;29.30;;;;;;4897515;29;20998;-66
2021/08/21 09:41:04;;;;;;;5.90;5.20;;;21.70;30.20;;;;;;4896798;29;20428;-66
2021/08/21 09:43:36;;;;;;;6.97;6.37;;;21.50;32.80;;;;;;4896866;29;20424;-67
2021/08/21 09:46:13;;;;;;;5.03;4.53;;;21.80;32.20;;;;;;4896820;29;20779;-66
2021/08/21 09:49:04;;;;;;;6.20;5.60;;;22.10;29.90;;;;;;4897140;29;20456;-67
2021/08/21 09:51:42;;;;;;;7.23;4.87;;;22.00;28.30;;;;;;4897010;29;20844;-67
2021/08/21 09:54:15;;;;;;;7.50;5.53;;;21.80;29.80;;;;;;4897459;29;20437;-66
2021/08/21 09:56:47;;;;;;;4.87;4.47;;;21.70;29.50;;;;;;4896996;29;20432;-65
2021/08/21 09:59:16;;;;;;;6.33;4.50;;;21.70;29.20;;;;;;4897457;29;20447;-66
2021/08/21 10:01:46;;;;;;;5.30;4.80;;;21.60;30.50;;;;;;4897898;29;20993;-66
2021/08/21 10:04:16;;;;;;;9.53;4.87;;;21.40;29.50;;;;;;4897346;29;20431;-65
2021/08/21 10:06:45;;;;;;;4.93;4.43;;;21.60;30.80;;;;;;4896818;29;20409;-66
2021/08/21 10:09:17;;;;;;;4.03;3.70;;;21.80;27.60;;;;;;4897284;29;20555;-65
2021/08/21 10:11:45;;;;;;;5.70;4.70;;;22.00;29.30;;;;;;4896654;29;20508;-66
2021/08/21 10:14:19;;;;;;;6.30;5.13;;;22.00;27.70;;;;;;4896989;29;20401;-67
2021/08/21 10:16:49;;;;;;;5.27;4.77;;;21.90;26.20;;;;;;4896855;29;20401;-66
2021/08/21 10:19:23;;;;;;;4.37;3.97;;;21.90;27.90;;;;;;4897218;29;20434;-67
2021/08/21 10:21:53;;;;;;;4.63;3.10;;;22.00;22.90;;;;;;4896761;29;20446;-67
2021/08/21 10:24:28;;;;;;;4.30;3.50;;;22.30;23.30;;;;;;4897342;29;20418;-66
2021/08/21 10:27:02;;;;;;;4.43;4.07;;;22.40;23.90;;;;;;4896370;29;20505;-65
2021/08/21 10:29:31;;;;;;;3.13;2.70;;;22.80;22.30;;;;;;4896686;29;20459;-65
2021/08/21 10:32:00;;;;;;;3.83;3.30;;;23.20;17.50;;;;;;4896574;29;20499;-66
2021/08/21 10:34:52;;;;;;;4.03;3.67;;;23.40;18.50;;;;;;4897676;29;20409;-66
2021/08/21 10:37:35;;;;;;;4.30;3.80;;;23.80;15.70;;;;;;4896810;29;20502;-66
2021/08/21 10:40:36;;;;;;;5.40;2.67;;;24.20;17.40;;;;;;4897097;29;20434;-65
2021/08/21 10:43:06;;;;;;;7.40;3.10;;;24.70;12.20;;;;;;4880205;29;20432;-66
2021/08/21 10:45:47;;;;;;;2.97;2.47;;;24.50;9.40;;;;;;4896710;29;20409;-65
2021/08/21 10:48:53;;;;;;;2.70;2.10;;;24.30;9.50;;;;;;4896175;29;20493;-66
2021/08/21 10:51:35;;;;;;;3.03;2.60;;;24.10;9.30;;;;;;4896476;29;20446;-65
2021/08/21 10:54:36;;;;;;;3.67;2.83;;;23.80;9.40;;;;;;4896740;29;20426;-66
2021/08/21 10:57:26;;;;;;;3.60;2.73;;;23.70;9.60;;;;;;4895627;29;20412;-66
2021/08/21 10:59:55;;;;;;;3.13;2.23;;;23.80;9.70;;;;;;4896567;29;20437;-65
2021/08/21 11:02:42;;;;;;;4.13;2.87;;;23.80;9.90;;;;;;4895260;29;20865;-66
2021/08/21 11:05:43;;;;;;;3.27;2.60;;;23.60;12.40;;;;;;4895970;29;20438;-65
2021/08/21 11:08:14;;;;;;;4.20;2.07;;;23.80;10.90;;;;;;4895665;29;20478;-64
2021/08/21 11:10:43;;;;;;;3.07;2.70;;;23.90;10.40;;;;;;4896131;29;20422;-66
2021/08/21 11:13:13;;;;;;;3.13;2.67;;;23.60;11.60;;;;;;4879071;29;20512;-66
2021/08/21 11:15:44;;;;;;;3.03;2.80;;;23.60;12.60;;;;;;4895433;29;20416;-66
2021/08/21 11:18:22;;;;;;;3.13;2.57;;;23.50;11.30;;;;;;4895392;29;20944;-65
2021/08/21 11:20:50;;;;;;;4.37;3.00;;;23.50;12.70;;;;;;4895517;29;20397;-65
2021/08/21 11:23:21;;;;;;;3.03;2.73;;;23.50;13.20;;;;;;4878949;29;20439;-65
2021/08/21 11:25:49;;;;;;;2.97;2.50;;;23.50;12.30;;;;;;4895650;29;20433;-65
2021/08/21 11:28:29;;;;;;;2.97;2.60;;;23.50;11.80;;;;;;4895505;29;20470;-65
2021/08/21 11:31:11;;;;;;;2.33;2.13;;;23.30;11.50;;;;;;4895826;29;20790;-65
2021/08/21 11:33:40;;;;;;;3.40;2.77;;;23.20;10.20;;;;;;4895786;29;20801;-65
2021/08/21 11:36:09;;;;;;;3.30;2.50;;;23.00;11.10;;;;;;4895353;29;20432;-65
2021/08/21 11:38:40;;;;;;;3.30;2.80;;;22.80;11.80;;;;;;4895274;29;20405;-65
2021/08/21 11:41:12;;;;;;;3.30;2.83;;;22.80;12.50;;;;;;4895395;29;20429;-65
2021/08/21 11:43:41;;;;;;;3.57;3.17;;;23.00;14.20;;;;;;4895288;29;20778;-65
2021/08/21 11:46:23;;;;;;;2.97;2.30;;;23.40;10.60;;;;;;4895462;29;20918;-65
2021/08/21 11:48:51;;;;;;;3.87;2.47;;;23.60;10.10;;;;;;4895021;29;20473;-65
2021/08/21 11:51:23;;;;;;;2.63;2.40;;;23.70;8.90;;;;;;4878529;29;20958;-64
2021/08/21 11:53:52;;;;;;;3.77;2.90;;;23.80;10.00;;;;;;4895386;29;20823;-65
2021/08/21 11:56:21;;;;;;;3.40;3.10;;;23.90;10.70;;;;;;4895373;29;20437;-65
2021/08/21 11:58:49;;;;;;;4.60;3.17;;;24.10;11.00;;;;;;4895350;29;20434;-66
2021/08/21 12:01:24;;;;;;;3.20;2.90;;;23.90;12.30;;;;;;4895663;29;20446;-64
2021/08/21 12:06:38;;;;;;;5.10;4.10;;;23.80;12.40;;;;;;4895083;29;20449;-65
2021/08/21 12:09:13;;;;;;;3.47;3.03;;;23.60;13.30;;;;;;4895063;29;20874;-65
2021/08/21 12:11:44;;;;;;;5.80;3.27;;;23.80;13.40;;;;;;4894964;29;21003;-65
2021/08/21 12:14:13;;;;;;;3.37;3.07;;;23.90;11.90;;;;;;4895866;29;20429;-64
2021/08/21 12:16:42;;;;;;;4.03;2.23;;;23.80;11.60;;;;;;4898557;29;20405;-64
2021/08/21 12:19:11;;;;;;;2.80;2.40;;;23.80;11.90;;;;;;4898738;29;20438;-65
2021/08/21 12:21:40;;;;;;;4.53;3.80;;;23.70;11.40;;;;;;4898743;29;20454;-65
2021/08/21 12:24:11;;;;;;;2.60;2.37;;;23.50;11.40;;;;;;4898873;29;20947;-65
2021/08/21 12:26:41;;;;;;;3.90;3.10;;;23.90;11.10;;;;;;4898397;29;20436;-66
2021/08/21 12:29:22;;;;;;;3.33;3.03;;;24.20;10.60;;;;;;4898426;29;20449;-64
2021/08/21 12:31:51;;;;;;;3.53;3.20;;;24.30;9.80;;;;;;4898884;29;20957;-66
2021/08/21 12:34:20;;;;;;;8.17;6.17;;;24.80;9.10;;;;;;4898459;29;20434;-64
2021/08/21 12:36:49;;;;;;;3.00;2.80;;;25.30;7.50;;;;;;4897912;29;20441;-65
2021/08/21 12:39:23;;;;;;;2.87;2.43;;;25.60;6.70;;;;;;4898164;29;20547;-65
2021/08/21 12:41:53;;;;;;;3.00;2.70;;;25.70;5.00;;;;;;4898124;29;20450;-64
2021/08/21 12:44:24;;;;;;;3.97;2.40;;;25.60;5.70;;;;;;4898218;29;20440;-66
2021/08/21 12:46:55;;;;;;;12.90;3.20;;;25.60;4.20;;;;;;4897648;29;20431;-65
2021/08/21 12:49:31;;;;;;;3.33;3.03;;;25.50;5.20;;;;;;4881130;29;20478;-65
2021/08/21 12:52:01;;;;;;;5.30;4.80;;;25.30;6.40;;;;;;4898067;29;20449;-64
2021/08/21 12:54:33;;;;;;;4.03;2.70;;;25.60;5.20;;;;;;4898158;29;20466;-64
2021/08/21 12:57:10;;;;;;;2.57;2.33;;;25.60;5.50;;;;;;4897827;29;20466;-65
2021/08/21 12:59:39;;;;;;;4.10;3.03;;;25.60;6.30;;;;;;4897830;29;20440;-66
2021/08/21 13:02:09;;;;;;;3.83;3.40;;;25.20;6.20;;;;;;4898065;29;20472;-65
2021/08/21 13:04:39;;;;;;;3.73;3.40;;;24.90;6.60;;;;;;4897912;29;20537;-65
2021/08/21 13:07:09;;;;;;;7.57;6.07;;;24.50;7.80;;;;;;4897312;29;20965;-66
2021/08/21 13:09:39;;;;;;;4.20;3.67;;;24.10;8.60;;;;;;4897564;29;20469;-66
2021/08/21 13:12:08;;;;;;;7.20;5.43;;;23.60;10.00;;;;;;4897791;29;20466;-65